Coin, Iowa
Current Conditions -  °F | °C
As of 8:15 AM on Sunday 25 Jan 2015 (Local Time) from KICL Reporting Station
Light Rain Light Rain  
Wind Chill: 25°   Ceiling: 1100
Heat Index: 36°   Visibility: 9mi
Dew Point: 34°   Wind: 18mph
Humidity: 93%   Direction: 340°NNW
Pressure: 29.76"   Gusts: 28mph
Location:  40.65°N, 95.23°W
Report Text: KICL 251415Z AUTO 34016G24KT 9SM -RA OVC011 02/01 A2976 RMK AO2
Loading
Personal Weather Stations






























Interactive Weather Map New forecast layout! Learn more

10-Day Weather Forecast

Advertisements
Track Severe Weather on mobile